createdAt,value
2022-08-01T00:01:00.938Z,77.97
2022-08-01T00:03:49.496Z,78.57
2022-08-01T00:06:37.970Z,76.57
2022-08-01T00:09:26.411Z,75.25
2022-08-01T00:12:16.316Z,75.95
2022-08-01T00:15:06.569Z,75.63
2022-08-01T00:17:55.271Z,76.38
2022-08-01T00:20:43.832Z,77.33
2022-08-01T00:23:32.627Z,76.32
2022-08-01T00:26:21.164Z,77.07
2022-08-01T00:30:01.096Z,77.05
2022-08-01T00:32:19.260Z,76.47
2022-08-01T00:35:08.255Z,76.15
2022-08-01T00:37:56.842Z,76.20
2022-08-01T00:40:45.406Z,76.38
2022-08-01T00:43:33.892Z,75.67
2022-08-01T00:46:23.676Z,75.57
2022-08-01T00:49:12.257Z,75.83
2022-08-01T00:52:01.292Z,76.97
2022-08-01T00:54:50.481Z,76.90
2022-08-01T00:58:02.601Z,76.35
2022-08-01T01:00:52.895Z,76.97
2022-08-01T01:03:58.488Z,76.17
2022-08-01T01:06:58.264Z,77.10
2022-08-01T01:09:52.934Z,78.67
2022-08-01T01:12:56.962Z,76.90
2022-08-01T01:15:49.850Z,77.73
2022-08-01T01:18:43.989Z,76.03
2022-08-01T01:21:48.294Z,76.30
2022-08-01T01:24:44.910Z,76.95
2022-08-01T01:27:44.912Z,77.37
2022-08-01T01:30:35.882Z,77.22
2022-08-01T01:33:29.374Z,76.05
2022-08-01T01:36:20.507Z,75.72
2022-08-01T01:39:09.191Z,75.50
2022-08-01T01:42:00.080Z,74.97
2022-08-01T01:44:50.762Z,73.90
2022-08-01T01:47:42.019Z,73.75
2022-08-01T01:50:31.835Z,75.53
2022-08-01T01:53:24.775Z,74.55
2022-08-01T01:56:16.147Z,75.37
2022-08-01T01:59:06.813Z,75.72
2022-08-01T02:02:05.446Z,75.97
2022-08-01T02:04:57.259Z,77.00
2022-08-01T02:07:46.899Z,76.43
2022-08-01T02:10:38.421Z,77.07
2022-08-01T02:13:27.234Z,76.67
2022-08-01T02:16:17.975Z,78.38
2022-08-01T02:19:06.561Z,78.53
2022-08-01T02:22:02.144Z,78.47
2022-08-01T02:24:56.750Z,78.23
2022-08-01T02:27:49.973Z,78.83
2022-08-01T02:30:44.079Z,79.30
2022-08-01T02:33:38.984Z,81.53
2022-08-01T02:36:33.034Z,79.80
2022-08-01T02:39:24.534Z,79.93
2022-08-01T02:42:15.302Z,81.70
2022-08-01T02:45:06.604Z,81.87
2022-08-01T02:47:59.858Z,81.33
2022-08-01T02:50:51.669Z,82.20
2022-08-01T02:53:45.018Z,83.63
2022-08-01T02:56:39.378Z,82.83
2022-08-01T02:59:30.865Z,85.60
2022-08-01T03:02:20.264Z,84.73
2022-08-01T03:05:10.500Z,83.37
2022-08-01T03:08:02.709Z,84.27
2022-08-01T03:10:54.733Z,82.47
2022-08-01T03:13:47.437Z,82.63
2022-08-01T03:16:37.919Z,83.70
2022-08-01T03:19:28.603Z,82.57
2022-08-01T03:22:18.152Z,81.43
2022-08-01T03:25:08.449Z,82.57
2022-08-01T03:28:00.244Z,80.50
2022-08-01T03:30:51.459Z,81.00
2022-08-01T03:33:40.031Z,80.80
2022-08-01T03:36:30.715Z,81.37
2022-08-01T03:39:21.513Z,80.13
2022-08-01T03:42:16.282Z,76.93
2022-08-01T03:45:13.357Z,79.97
2022-08-01T03:48:07.482Z,79.77
2022-08-01T03:50:56.567Z,80.60
2022-08-01T03:53:47.514Z,81.00
2022-08-01T03:56:37.138Z,82.87
2022-08-01T03:59:26.133Z,83.77
2022-08-01T04:02:16.009Z,86.67
2022-08-01T04:05:06.766Z,86.17
2022-08-01T04:07:57.306Z,88.40
2022-08-01T04:10:45.880Z,89.40
2022-08-01T04:13:36.849Z,88.23
2022-08-01T04:16:25.891Z,88.80
2022-08-01T04:19:14.395Z,89.53
2022-08-01T04:22:05.061Z,88.87
2022-08-01T04:24:58.290Z,89.10
2022-08-01T04:27:52.203Z,92.20
2022-08-01T04:30:42.475Z,95.43
2022-08-01T04:33:33.508Z,93.07
2022-08-01T04:36:25.528Z,90.23
2022-08-01T04:39:18.114Z,88.60
2022-08-01T04:42:07.764Z,84.17
2022-08-01T04:44:56.438Z,82.83
2022-08-01T04:47:45.851Z,81.57
2022-08-01T04:50:34.845Z,82.07
2022-08-01T04:53:23.955Z,82.40
2022-08-01T04:56:14.805Z,81.67
2022-08-01T04:59:20.896Z,83.60
2022-08-01T05:02:10.447Z,85.17
2022-08-01T05:04:58.822Z,84.67
2022-08-01T05:07:47.321Z,85.23
2022-08-01T05:10:35.871Z,85.13
2022-08-01T05:13:25.759Z,86.83
2022-08-01T05:16:14.252Z,84.20
2022-08-01T05:19:03.681Z,82.27
2022-08-01T05:21:52.119Z,80.83
2022-08-01T05:24:41.638Z,80.33
2022-08-01T05:27:30.151Z,79.23
2022-08-01T05:30:21.137Z,80.57
2022-08-01T05:33:09.693Z,77.73
2022-08-01T05:35:58.190Z,75.43
2022-08-01T05:38:47.350Z,78.50
2022-08-01T05:41:36.003Z,78.33
2022-08-01T05:44:24.280Z,81.10
2022-08-01T05:47:14.245Z,82.13
2022-08-01T05:50:02.743Z,79.20
2022-08-01T05:52:51.413Z,79.60
2022-08-01T05:55:39.715Z,79.03
2022-08-01T05:58:28.242Z,76.80
2022-08-01T06:01:16.647Z,72.25
2022-08-01T06:04:06.935Z,67.22
2022-08-01T06:06:55.309Z,64.45
2022-08-01T06:09:43.649Z,64.25
2022-08-01T06:12:35.715Z,66.40
2022-08-01T06:15:24.361Z,65.72
2022-08-01T06:18:12.880Z,61.95
2022-08-01T06:21:02.637Z,61.63
2022-08-01T06:23:51.103Z,61.70
2022-08-01T06:26:39.501Z,59.30
2022-08-01T06:29:27.873Z,59.03
2022-08-01T06:32:26.322Z,57.10
2022-08-01T06:35:16.215Z,54.28
2022-08-01T06:38:06.103Z,49.55
2022-08-01T06:40:54.503Z,47.45
2022-08-01T06:43:43.223Z,45.03
2022-08-01T06:46:32.524Z,44.22
2022-08-01T06:49:21.774Z,45.80
2022-08-01T06:52:10.716Z,39.25
2022-08-01T06:55:00.885Z,37.13
2022-08-01T06:57:51.175Z,36.58
2022-08-01T07:00:39.530Z,36.58
2022-08-01T07:03:52.742Z,36.47
2022-08-01T07:06:36.715Z,34.22
2022-08-01T07:09:25.243Z,34.65
2022-08-01T07:12:14.955Z,32.20
2022-08-01T07:15:04.763Z,29.60
2022-08-01T07:17:53.079Z,29.20
2022-08-01T07:20:51.106Z,28.27
2022-08-01T07:23:46.115Z,24.90
2022-08-01T07:26:34.901Z,24.40
2022-08-01T07:29:25.694Z,21.42
2022-08-01T07:32:14.173Z,20.38
2022-08-01T07:35:02.683Z,19.75
2022-08-01T07:37:51.108Z,21.10
2022-08-01T07:40:39.671Z,17.63
2022-08-01T07:43:28.078Z,17.90
2022-08-01T07:46:18.240Z,17.65
2022-08-01T07:49:06.653Z,14.23
2022-08-01T07:52:13.718Z,15.00
2022-08-01T07:55:02.490Z,15.13
2022-08-01T07:57:51.190Z,13.32
2022-08-01T08:00:39.700Z,13.13
2022-08-01T08:03:29.512Z,11.77
2022-08-01T08:06:17.841Z,8.30
2022-08-01T08:09:06.267Z,9.15
2022-08-01T08:11:54.599Z,7.40
2022-08-01T08:14:43.016Z,7.38
2022-08-01T08:17:35.569Z,6.72
2022-08-01T08:20:28.211Z,5.80
2022-08-01T08:23:42.088Z,6.00
2022-08-01T08:26:32.032Z,5.70
2022-08-01T08:29:20.665Z,6.03
2022-08-01T08:32:11.020Z,6.63
2022-08-01T08:34:59.640Z,5.50
2022-08-01T08:37:53.262Z,6.03
2022-08-01T08:40:44.566Z,4.90
2022-08-01T08:43:33.069Z,4.90
2022-08-01T08:46:28.275Z,5.32
2022-08-01T08:49:19.568Z,5.75
2022-08-01T08:52:08.893Z,5.88
2022-08-01T08:55:00.514Z,5.20
2022-08-01T08:57:50.022Z,4.60
2022-08-01T09:00:38.613Z,4.47
2022-08-01T09:03:27.205Z,4.13
2022-08-01T09:06:15.709Z,4.57
2022-08-01T09:09:04.694Z,4.65
2022-08-01T09:11:57.445Z,7.40
2022-08-01T09:14:48.038Z,3.95
2022-08-01T09:17:43.456Z,4.05
2022-08-01T09:20:35.714Z,4.38
2022-08-01T09:23:34.136Z,3.75
2022-08-01T09:26:30.976Z,4.82
2022-08-01T09:29:36.260Z,4.00
2022-08-01T09:32:28.485Z,6.90
2022-08-01T09:35:30.161Z,3.78
2022-08-01T09:38:21.710Z,4.97
2022-08-01T09:41:10.153Z,4.00
2022-08-01T09:44:02.768Z,4.22
2022-08-01T09:46:56.631Z,4.20
2022-08-01T09:49:51.950Z,4.00
2022-08-01T09:52:41.566Z,4.22
2022-08-01T09:55:30.226Z,4.10
2022-08-01T09:58:18.613Z,6.07
2022-08-01T10:01:08.822Z,3.83
2022-08-01T10:04:12.997Z,3.90
2022-08-01T10:07:07.853Z,4.40
2022-08-01T10:09:56.645Z,3.97
2022-08-01T10:12:46.002Z,4.03
2022-08-01T10:15:38.183Z,4.15
2022-08-01T10:18:28.416Z,3.55
2022-08-01T10:21:44.020Z,3.58
2022-08-01T10:24:30.135Z,3.45
2022-08-01T10:27:24.727Z,3.35
2022-08-01T10:30:26.611Z,4.85
2022-08-01T10:33:20.008Z,4.35
2022-08-01T10:36:27.509Z,3.53
2022-08-01T10:39:20.062Z,4.07
2022-08-01T10:42:15.947Z,3.10
2022-08-01T10:45:06.247Z,3.47
2022-08-01T10:48:02.454Z,3.30
2022-08-01T10:50:56.296Z,3.40
2022-08-01T10:53:50.492Z,2.90
2022-08-01T10:56:46.260Z,3.67
2022-08-01T10:59:50.652Z,3.15
2022-08-01T11:03:01.758Z,4.07
2022-08-01T11:05:54.452Z,3.58
2022-08-01T11:08:44.780Z,5.97
2022-08-01T11:12:01.116Z,3.65
2022-08-01T11:15:29.096Z,4.15
2022-08-01T11:18:37.787Z,3.45
2022-08-01T11:22:02.116Z,3.90
2022-08-01T11:25:01.164Z,3.65
2022-08-01T11:28:29.045Z,3.97
2022-08-01T11:31:37.491Z,3.10
2022-08-01T11:34:56.941Z,3.70
2022-08-01T11:37:45.813Z,3.35
2022-08-01T11:40:34.273Z,3.80
2022-08-01T11:43:24.181Z,3.40
2022-08-01T11:46:13.893Z,3.38
2022-08-01T11:49:29.132Z,3.85
2022-08-01T11:52:21.175Z,3.80
2022-08-01T11:55:11.917Z,3.60
2022-08-01T11:58:06.712Z,3.17
2022-08-01T12:01:00.463Z,3.80
2022-08-01T12:03:58.050Z,3.80
2022-08-01T12:06:46.752Z,3.85
2022-08-01T12:09:39.310Z,4.07
2022-08-01T12:12:28.224Z,4.15
2022-08-01T12:15:17.945Z,4.65
2022-08-01T12:18:09.124Z,3.92
2022-08-01T12:21:05.878Z,3.80
2022-08-01T12:24:02.880Z,3.80
2022-08-01T12:26:51.312Z,3.88
2022-08-01T12:29:41.558Z,3.53
2022-08-01T12:32:35.498Z,4.28
2022-08-01T12:35:27.281Z,4.47
2022-08-01T12:38:18.577Z,3.58
2022-08-01T12:41:12.292Z,4.13
2022-08-01T12:44:00.924Z,4.15
2022-08-01T12:46:49.627Z,3.80
2022-08-01T12:49:39.310Z,4.15
2022-08-01T12:52:29.233Z,4.57
2022-08-01T12:55:20.041Z,5.15
2022-08-01T12:58:15.847Z,4.30
2022-08-01T13:01:06.936Z,5.35
2022-08-01T13:04:02.814Z,3.80
2022-08-01T13:06:55.588Z,3.97
2022-08-01T13:09:52.662Z,3.95
2022-08-01T13:12:42.348Z,4.20
2022-08-01T13:15:35.718Z,4.07
2022-08-01T13:18:31.538Z,4.75
2022-08-01T13:21:22.178Z,4.60
2022-08-01T13:24:12.062Z,3.88
2022-08-01T13:27:05.143Z,4.50
2022-08-01T13:29:54.518Z,3.88
2022-08-01T13:32:45.193Z,4.13
2022-08-01T13:35:33.746Z,4.65
2022-08-01T13:38:42.850Z,4.20
2022-08-01T13:41:35.520Z,4.32
2022-08-01T13:44:25.314Z,7.03
2022-08-01T13:47:15.854Z,4.47
2022-08-01T13:50:05.997Z,4.78
2022-08-01T13:52:54.645Z,4.78
2022-08-01T13:55:43.096Z,5.20
2022-08-01T13:58:31.545Z,5.03
2022-08-01T14:01:21.676Z,5.85
2022-08-01T14:04:10.385Z,4.65
2022-08-01T14:07:00.394Z,4.35
2022-08-01T14:10:04.545Z,4.50
2022-08-01T14:12:59.902Z,4.32
2022-08-01T14:15:51.118Z,4.38
2022-08-01T14:18:44.534Z,5.75
2022-08-01T14:21:33.547Z,4.20
2022-08-01T14:24:21.987Z,4.10
2022-08-01T14:27:10.656Z,4.65
2022-08-01T14:30:02.569Z,4.35
2022-08-01T14:32:51.960Z,6.03
2022-08-01T14:36:06.755Z,4.57
2022-08-01T14:38:51.046Z,4.50
2022-08-01T14:41:39.450Z,4.43
2022-08-01T14:44:33.044Z,4.85
2022-08-01T14:47:22.610Z,4.53
2022-08-01T14:50:13.555Z,4.47
2022-08-01T14:53:03.390Z,5.03
2022-08-01T14:55:51.867Z,4.88
2022-08-01T14:58:40.284Z,5.10
2022-08-01T15:01:28.801Z,4.28
2022-08-01T15:04:18.513Z,4.53
2022-08-01T15:07:06.920Z,4.47
2022-08-01T15:09:57.341Z,4.40
2022-08-01T15:12:50.511Z,4.50
2022-08-01T15:15:39.123Z,4.00
2022-08-01T15:18:27.813Z,4.45
2022-08-01T15:21:34.262Z,4.80
2022-08-01T15:24:25.122Z,4.75
2022-08-01T15:27:15.029Z,5.22
2022-08-01T15:30:03.608Z,4.18
2022-08-01T15:32:52.037Z,5.07
2022-08-01T15:35:40.887Z,4.97
2022-08-01T15:38:29.291Z,5.30
2022-08-01T15:41:17.893Z,5.80
2022-08-01T15:44:07.738Z,5.45
2022-08-01T15:46:56.212Z,5.63
2022-08-01T15:49:44.763Z,6.63
2022-08-01T15:52:33.207Z,5.80
2022-08-01T15:55:21.598Z,5.82
2022-08-01T15:58:11.655Z,5.80
2022-08-01T16:01:01.834Z,6.88
2022-08-01T16:03:50.438Z,6.05
2022-08-01T16:06:39.109Z,6.57
2022-08-01T16:09:27.659Z,6.05
2022-08-01T16:12:16.046Z,5.80
2022-08-01T16:15:04.780Z,6.25
2022-08-01T16:17:54.625Z,6.30
2022-08-01T16:20:50.248Z,6.07
2022-08-01T16:23:39.000Z,5.25
2022-08-01T16:26:28.291Z,5.10
2022-08-01T16:29:16.716Z,6.10
2022-08-01T16:32:16.990Z,6.05
2022-08-01T16:35:16.589Z,6.05
2022-08-01T16:38:05.769Z,5.93
2022-08-01T16:40:55.661Z,6.10
2022-08-01T16:43:46.132Z,5.40
2022-08-01T16:46:42.553Z,5.60
2022-08-01T16:49:32.075Z,5.97
2022-08-01T16:52:22.021Z,6.20
2022-08-01T16:55:17.604Z,5.97
2022-08-01T16:58:06.110Z,5.70
2022-08-01T17:01:52.684Z,5.93
2022-08-01T17:04:09.356Z,6.93
2022-08-01T17:06:58.150Z,6.72
2022-08-01T17:09:47.948Z,6.85
2022-08-01T17:12:36.613Z,6.13
2022-08-01T17:15:25.068Z,6.72
2022-08-01T17:18:13.558Z,6.75
2022-08-01T17:21:02.060Z,6.40
2022-08-01T17:23:50.905Z,6.75
2022-08-01T17:26:40.640Z,7.05
2022-08-01T17:29:28.955Z,6.70
2022-08-01T17:32:32.765Z,7.60
2022-08-01T17:35:21.486Z,8.18
2022-08-01T17:38:09.891Z,7.25
2022-08-01T17:40:58.337Z,7.55
2022-08-01T17:43:48.255Z,8.25
2022-08-01T17:46:37.028Z,8.05
2022-08-01T17:49:52.424Z,8.73
2022-08-01T17:52:35.691Z,8.23
2022-08-01T17:55:56.457Z,8.27
2022-08-01T17:58:50.628Z,8.73
2022-08-01T18:01:45.259Z,9.15
2022-08-01T18:04:34.684Z,9.40
2022-08-01T18:08:01.215Z,8.93
2022-08-01T18:10:33.893Z,9.88
2022-08-01T18:13:22.369Z,9.00
2022-08-01T18:16:13.309Z,9.98
2022-08-01T18:19:03.526Z,11.38
2022-08-01T18:21:52.340Z,11.55
2022-08-01T18:24:40.872Z,12.15
2022-08-01T18:28:16.433Z,12.73
2022-08-01T18:30:37.691Z,13.80
2022-08-01T18:33:26.160Z,14.35
2022-08-01T18:36:32.016Z,14.27
2022-08-01T18:39:21.971Z,15.13
2022-08-01T18:42:14.085Z,14.60
2022-08-01T18:45:02.721Z,16.10
2022-08-01T18:47:51.168Z,16.05
2022-08-01T18:50:40.557Z,16.13
2022-08-01T18:53:30.518Z,17.25
2022-08-01T18:56:19.165Z,17.90
2022-08-01T18:59:07.955Z,18.80
2022-08-01T19:01:56.350Z,20.52
2022-08-01T19:04:45.341Z,20.38
2022-08-01T19:08:05.140Z,19.83
2022-08-01T19:10:44.704Z,20.30
2022-08-01T19:13:33.242Z,21.10
2022-08-01T19:16:21.776Z,21.20
2022-08-01T19:19:10.516Z,20.42
2022-08-01T19:21:59.377Z,20.90
2022-08-01T19:47:18.917Z,22.30
2022-08-01T19:50:08.249Z,22.25
2022-08-01T19:52:58.959Z,21.98
2022-08-01T19:55:48.591Z,21.50
2022-08-01T19:58:40.217Z,22.15
2022-08-01T20:01:29.161Z,22.40
2022-08-01T20:04:19.876Z,21.67
2022-08-01T20:07:09.285Z,22.38
2022-08-01T20:09:58.404Z,23.17
2022-08-01T20:12:47.943Z,23.73
2022-08-01T20:15:36.340Z,23.63
2022-08-01T20:18:25.321Z,24.52
2022-08-01T20:21:15.814Z,24.60
2022-08-01T20:24:04.808Z,24.05
2022-08-01T20:26:55.821Z,24.02
2022-08-01T20:29:46.115Z,24.88
2022-08-01T20:32:43.331Z,24.23
2022-08-01T20:35:51.097Z,26.70
2022-08-01T20:38:43.581Z,27.20
2022-08-01T20:41:32.678Z,27.75
2022-08-01T20:44:22.033Z,29.20
2022-08-01T20:47:10.791Z,32.15
2022-08-01T20:50:29.448Z,33.28
2022-08-01T20:53:28.351Z,34.57
2022-08-01T20:56:26.668Z,36.92
2022-08-01T20:59:39.973Z,38.38
2022-08-01T21:02:42.677Z,39.15
2022-08-01T21:05:33.582Z,39.53
2022-08-01T21:08:25.293Z,40.08
2022-08-01T21:11:22.002Z,39.97
2022-08-01T21:14:13.472Z,41.15
2022-08-01T21:17:08.405Z,41.80
2022-08-01T21:20:01.245Z,42.97
2022-08-01T21:23:05.866Z,43.70
2022-08-01T21:25:55.275Z,44.38
2022-08-01T21:28:53.860Z,45.33
2022-08-01T21:31:43.177Z,45.33
2022-08-01T21:34:31.915Z,45.63
2022-08-01T21:37:20.291Z,47.17
2022-08-01T21:40:11.449Z,47.72
2022-08-01T21:43:01.996Z,48.47
2022-08-01T21:45:57.891Z,47.70
2022-08-01T21:48:47.983Z,48.50
2022-08-01T21:51:43.695Z,48.70
2022-08-01T21:54:41.729Z,49.45
2022-08-01T21:57:45.311Z,49.47
2022-08-01T22:00:37.599Z,49.75
2022-08-01T22:03:36.210Z,48.67
2022-08-01T22:06:25.950Z,49.60
2022-08-01T22:09:15.367Z,48.58
2022-08-01T22:12:08.127Z,49.42
2022-08-01T22:14:58.709Z,48.33
2022-08-01T22:17:49.708Z,48.13
2022-08-01T22:20:39.618Z,48.17
2022-08-01T22:23:28.858Z,47.03
2022-08-01T22:26:17.674Z,47.60
2022-08-01T22:29:06.821Z,48.22
2022-08-01T22:31:57.026Z,48.58
2022-08-01T22:34:45.503Z,48.83
2022-08-01T22:37:56.998Z,49.47
2022-08-01T22:40:49.472Z,49.47
2022-08-01T22:43:42.910Z,49.75
2022-08-01T22:46:46.238Z,51.97
2022-08-01T22:49:41.360Z,51.08
2022-08-01T22:52:31.529Z,51.45
2022-08-01T22:55:22.562Z,52.45
2022-08-01T22:58:12.984Z,52.92
2022-08-01T23:01:02.966Z,52.45
2022-08-01T23:03:53.528Z,54.35
2022-08-01T23:06:44.162Z,52.90
2022-08-01T23:09:39.191Z,54.25
2022-08-01T23:12:45.547Z,55.08
2022-08-01T23:15:35.083Z,55.95
2022-08-01T23:18:24.734Z,56.05
2022-08-01T23:21:14.727Z,54.65
2022-08-01T23:24:06.238Z,55.72
2022-08-01T23:26:55.484Z,54.72
2022-08-01T23:29:47.912Z,53.72
2022-08-01T23:32:36.704Z,54.35
2022-08-01T23:35:25.779Z,55.17
2022-08-01T23:38:16.003Z,56.05
2022-08-01T23:41:15.003Z,55.67
2022-08-01T23:44:03.484Z,56.63
2022-08-01T23:46:54.895Z,57.00
2022-08-01T23:49:53.116Z,55.78
2022-08-01T23:52:48.224Z,57.05
2022-08-01T23:55:38.362Z,58.88
2022-08-01T23:58:26.851Z,58.78
